Time;durP1;ratioP1;P1;durP2;ratioP2;P2;SDS_P1;SDS_P2;PMS_P1;PMS_P2;Temp;Humidity;BMP_temperature;BMP_pressure;BME280_temperature;BME280_humidity;BME280_pressure;Samples;Min_cycle;Max_cycle;Signal;HPM_P1;HPM_P2
2021/03/03 00:00:04;;;;;;;39.65;20.25;;;;;;;10.80;48.95;102209.25;350924;28;1073;-68
2021/03/03 00:00:16;;;;;;;39.45;19.98;;;;;;;10.85;49.79;102212.66;350875;28;1089;-67
2021/03/03 00:00:27;;;;;;;35.97;19.23;;;;;;;10.91;50.44;102211.63;350951;28;1248;-67
2021/03/03 00:00:38;;;;;;;35.45;19.38;;;;;;;10.93;49.98;102208.97;350931;28;1061;-67
2021/03/03 00:00:50;;;;;;;38.55;19.73;;;;;;;10.89;49.03;102213.44;350757;28;1209;-68
2021/03/03 00:01:01;;;;;;;38.20;19.85;;;;;;;10.80;48.92;102213.69;350997;28;1088;-68
2021/03/03 00:01:13;;;;;;;36.17;19.73;;;;;;;10.78;48.81;102216.34;350904;28;1130;-67
2021/03/03 00:01:24;;;;;;;37.88;19.88;;;;;;;10.74;49.42;102208.53;350988;28;1227;-68
2021/03/03 00:01:35;;;;;;;36.80;20.00;;;;;;;10.76;49.11;102212.03;350932;28;1123;-68
2021/03/03 00:01:47;;;;;;;38.92;20.00;;;;;;;10.79;49.82;102211.94;350936;28;1132;-68
2021/03/03 00:01:59;;;;;;;38.50;19.48;;;;;;;10.77;49.11;102208.47;350916;28;1173;-66
2021/03/03 00:02:10;;;;;;;38.90;19.48;;;;;;;10.74;49.66;102208.53;350984;28;1148;-68
2021/03/03 00:02:21;;;;;;;39.88;19.78;;;;;;;10.74;49.66;102214.69;350876;28;1464;-68
2021/03/03 00:02:32;;;;;;;40.85;19.95;;;;;;;10.75;49.03;102211.13;350889;28;1073;-68
2021/03/03 00:02:44;;;;;;;39.47;19.77;;;;;;;10.76;49.90;102214.66;350958;28;1176;-68
2021/03/03 00:02:55;;;;;;;40.63;19.55;;;;;;;10.71;49.98;102206.84;350913;28;1060;-69
2021/03/03 00:03:07;;;;;;;41.35;19.13;;;;;;;10.75;49.48;102213.78;350993;28;1185;-68
2021/03/03 00:03:18;;;;;;;41.90;19.25;;;;;;;10.74;49.51;102211.19;350904;28;1129;-67
2021/03/03 00:03:30;;;;;;;38.75;19.48;;;;;;;10.69;49.02;102212.16;350860;28;989;-68
2021/03/03 00:03:41;;;;;;;36.45;19.70;;;;;;;10.68;50.17;102215.69;350931;28;1077;-68
2021/03/03 00:03:52;;;;;;;36.50;19.23;;;;;;;10.68;49.60;102218.34;350853;28;1917;-67
2021/03/03 00:04:03;;;;;;;37.10;19.25;;;;;;;10.69;48.89;102222.72;350871;28;1135;-67
2021/03/03 00:04:14;;;;;;;38.00;19.17;;;;;;;10.71;49.49;102219.19;350887;28;1104;-67
2021/03/03 00:04:26;;;;;;;39.28;19.27;;;;;;;10.74;50.13;102221.75;350788;28;2486;-67
2021/03/03 00:04:37;;;;;;;39.25;19.25;;;;;;;10.77;50.29;102212.00;350898;28;1206;-68
2021/03/03 00:04:48;;;;;;;35.97;19.48;;;;;;;10.77;49.23;102219.91;350994;28;1024;-68
2021/03/03 00:04:59;;;;;;;35.80;19.88;;;;;;;10.78;49.41;102215.47;349361;28;1209;-69
2021/03/03 00:05:11;;;;;;;36.35;19.70;;;;;;;10.80;49.39;102214.53;348077;28;1138;-68
2021/03/03 00:05:22;;;;;;;36.88;19.27;;;;;;;10.82;49.41;102212.72;347992;28;1033;-68
2021/03/03 00:05:34;;;;;;;38.00;19.42;;;;;;;10.83;50.37;102218.91;348032;28;1139;-67
2021/03/03 00:05:45;;;;;;;38.22;19.50;;;;;;;10.84;49.81;102218.00;348084;28;1124;-68
2021/03/03 00:05:56;;;;;;;37.17;19.58;;;;;;;10.86;49.60;102221.44;348051;28;1306;-68
2021/03/03 00:06:07;;;;;;;37.80;20.05;;;;;;;10.88;49.43;102216.13;348062;28;1392;-68
2021/03/03 00:06:19;;;;;;;37.38;19.80;;;;;;;10.86;50.50;102217.03;348009;28;1102;-68
2021/03/03 00:06:30;;;;;;;39.28;19.67;;;;;;;10.82;49.67;102215.38;348092;28;1254;-69
2021/03/03 00:06:41;;;;;;;39.42;19.70;;;;;;;10.84;50.10;102218.84;348040;28;1073;-68
2021/03/03 00:06:52;;;;;;;37.38;19.98;;;;;;;10.84;50.24;102210.06;348215;28;1093;-65
2021/03/03 00:07:03;;;;;;;36.13;19.98;;;;;;;10.82;50.09;102215.38;349649;28;1058;-67
2021/03/03 00:07:15;;;;;;;37.78;20.00;;;;;;;10.76;49.56;102222.59;350014;28;1707;-67
2021/03/03 00:07:26;;;;;;;39.67;20.23;;;;;;;10.72;50.07;102221.78;349928;28;1846;-65
2021/03/03 00:07:37;;;;;;;43.25;20.42;;;;;;;10.73;49.06;102209.44;349412;28;1159;-68
2021/03/03 00:07:48;;;;;;;41.45;20.00;;;;;;;10.79;50.05;102220.72;349440;28;994;-68
2021/03/03 00:07:59;;;;;;;41.42;19.77;;;;;;;10.81;50.02;102216.28;349429;28;1154;-67
2021/03/03 00:08:10;;;;;;;40.88;20.10;;;;;;;10.83;49.93;102213.59;349346;28;1157;-68
2021/03/03 00:08:21;;;;;;;39.33;20.23;;;;;;;10.86;50.33;102219.66;349393;28;1085;-68
2021/03/03 00:08:32;;;;;;;39.00;20.18;;;;;;;10.86;49.27;102218.81;349435;28;1170;-68
2021/03/03 00:08:43;;;;;;;39.63;20.30;;;;;;;10.90;50.33;102214.31;349444;28;1060;-68
2021/03/03 00:08:54;;;;;;;39.42;20.35;;;;;;;10.87;50.46;102215.28;349437;28;1144;-68
2021/03/03 00:09:06;;;;;;;36.85;20.48;;;;;;;10.86;49.29;102221.44;349372;28;1045;-66
2021/03/03 00:09:17;;;;;;;36.28;20.30;;;;;;;10.86;49.81;102216.16;350903;28;1083;-68
2021/03/03 00:09:28;;;;;;;35.60;20.30;;;;;;;10.86;50.21;102218.81;350921;28;1118;-67
2021/03/03 00:09:40;;;;;;;36.05;20.25;;;;;;;10.79;49.27;102217.22;350870;28;1205;-67
2021/03/03 00:09:51;;;;;;;39.33;20.02;;;;;;;10.74;49.70;102224.41;350949;28;1067;-67
2021/03/03 00:10:04;;;;;;;39.08;19.67;;;;;;;10.73;49.79;102222.66;350901;28;1126;-67
2021/03/03 00:10:15;;;;;;;38.95;19.55;;;;;;;10.75;49.77;102221.72;350933;28;1151;-68
2021/03/03 00:10:26;;;;;;;41.25;19.98;;;;;;;10.77;49.86;102216.38;350882;28;1220;-67
2021/03/03 00:10:37;;;;;;;48.00;20.58;;;;;;;10.78;50.27;102216.34;351167;28;1723;-68
2021/03/03 00:10:48;;;;;;;46.17;20.73;;;;;;;10.80;49.55;102219.84;350929;28;1197;-67
2021/03/03 00:10:59;;;;;;;38.20;20.10;;;;;;;10.81;49.82;102215.41;350836;28;1063;-68
2021/03/03 00:11:10;;;;;;;36.40;20.00;;;;;;;10.83;50.19;102213.59;350906;28;1089;-68
2021/03/03 00:11:22;;;;;;;37.63;20.55;;;;;;;10.82;50.58;102222.44;350931;28;1110;-67
2021/03/03 00:11:33;;;;;;;37.60;20.05;;;;;;;10.82;49.73;102210.06;350940;28;1055;-67
2021/03/03 00:11:44;;;;;;;37.03;20.15;;;;;;;10.84;50.35;102210.91;350911;28;1055;-68
2021/03/03 00:11:55;;;;;;;37.50;20.17;;;;;;;10.84;49.38;102220.63;350808;28;1232;-68
2021/03/03 00:12:08;;;;;;;41.45;20.60;;;;;;;10.82;49.71;102215.38;350916;28;1122;-66
2021/03/03 00:12:19;;;;;;;42.33;20.70;;;;;;;10.77;49.99;102217.28;350816;28;1252;-67
2021/03/03 00:12:30;;;;;;;40.58;20.58;;;;;;;10.79;49.75;102217.22;350869;28;1081;-68
2021/03/03 00:12:42;;;;;;;35.05;20.08;;;;;;;10.79;49.43;102217.22;350849;28;1215;-68
2021/03/03 00:12:53;;;;;;;35.50;20.00;;;;;;;10.81;50.59;102211.00;350836;28;1128;-67
2021/03/03 00:13:04;;;;;;;37.22;20.40;;;;;;;10.83;49.61;102219.75;350918;28;1237;-68
2021/03/03 00:13:15;;;;;;;37.95;20.45;;;;;;;10.86;49.85;102210.88;350967;28;1060;-66
2021/03/03 00:13:26;;;;;;;38.44;20.44;;;;;;;10.86;49.35;102218.81;350932;28;1164;-67
2021/03/03 00:13:37;;;;;;;37.90;20.15;;;;;;;10.83;49.46;102214.47;350958;28;1143;-68
2021/03/03 00:13:48;;;;;;;36.40;20.23;;;;;;;10.83;49.90;102217.09;349293;28;1130;-68
2021/03/03 00:13:59;;;;;;;39.15;20.58;;;;;;;10.83;50.02;102209.19;349433;28;1136;-67
2021/03/03 00:14:11;;;;;;;39.75;20.42;;;;;;;10.79;50.20;102218.09;349469;28;1052;-66
2021/03/03 00:14:22;;;;;;;39.33;19.73;;;;;;;10.78;50.24;102216.34;349423;28;1090;-67
2021/03/03 00:14:33;;;;;;;37.00;19.67;;;;;;;10.78;50.23;102207.56;349497;28;1033;-68
2021/03/03 00:14:44;;;;;;;40.03;19.88;;;;;;;10.74;50.20;102219.97;349282;28;1030;-68
2021/03/03 00:14:55;;;;;;;40.55;19.95;;;;;;;10.75;49.70;102220.84;349435;28;1037;-67
2021/03/03 00:15:07;;;;;;;41.88;20.02;;;;;;;10.78;49.74;102218.13;349443;28;1074;-68
2021/03/03 00:15:18;;;;;;;38.67;20.20;;;;;;;10.75;49.91;102213.78;349477;28;1159;-68
2021/03/03 00:15:29;;;;;;;38.88;20.42;;;;;;;10.73;49.56;102222.66;349482;28;1120;-67
2021/03/03 00:15:40;;;;;;;40.22;20.10;;;;;;;10.69;49.31;102214.81;349405;28;1065;-68
2021/03/03 00:15:51;;;;;;;43.92;20.63;;;;;;;10.67;49.31;102216.63;350873;28;1159;-68
2021/03/03 00:16:03;;;;;;;42.40;20.48;;;;;;;10.65;49.83;102215.78;350875;28;1201;-67
2021/03/03 00:16:14;;;;;;;40.95;20.65;;;;;;;10.70;50.30;102220.94;350930;28;1200;-67
2021/03/03 00:16:25;;;;;;;42.53;20.33;;;;;;;10.65;49.70;102220.22;349410;28;1168;-67
2021/03/03 00:16:37;;;;;;;42.97;19.90;;;;;;;10.63;50.21;102214.97;349355;28;1093;-67
2021/03/03 00:16:48;;;;;;;40.15;20.08;;;;;;;10.66;49.96;102221.91;349377;28;1159;-67
2021/03/03 00:16:59;;;;;;;38.45;20.38;;;;;;;10.70;50.01;102218.31;349460;28;1155;-67
2021/03/03 00:17:10;;;;;;;38.25;20.65;;;;;;;10.70;49.40;102215.66;348066;28;1057;-68
2021/03/03 00:17:22;;;;;;;38.58;20.58;;;;;;;10.64;50.17;102219.31;348104;28;1163;-67
2021/03/03 00:17:33;;;;;;;42.22;20.70;;;;;;;10.64;49.81;102216.69;347940;28;1154;-67
2021/03/03 00:17:45;;;;;;;42.28;20.88;;;;;;;10.64;50.65;102214.03;348102;28;1166;-67
2021/03/03 00:17:56;;;;;;;39.45;20.85;;;;;;;10.68;49.72;102215.69;348293;28;1666;-67
2021/03/03 00:18:07;;;;;;;40.65;21.00;;;;;;;10.69;50.77;102213.94;349150;28;1839;-68
2021/03/03 00:18:19;;;;;;;42.13;20.80;;;;;;;10.69;50.31;102206.88;349748;28;1111;-67
2021/03/03 00:18:30;;;;;;;41.72;20.45;;;;;;;10.68;50.60;102217.50;350718;28;1065;-67
2021/03/03 00:18:41;;;;;;;38.72;19.83;;;;;;;10.67;50.29;102214.00;350831;28;1017;-67
2021/03/03 00:18:52;;;;;;;35.40;19.83;;;;;;;10.69;50.09;102212.16;350842;28;1137;-68
2021/03/03 00:19:04;;;;;;;37.67;20.08;;;;;;;10.69;50.15;102214.81;351115;28;1143;-67
2021/03/03 00:19:15;;;;;;;35.63;19.85;;;;;;;10.69;49.96;102211.31;352178;28;1184;-67
2021/03/03 00:19:26;;;;;;;36.45;19.98;;;;;;;10.72;50.91;102216.50;352204;28;1240;-67
2021/03/03 00:19:37;;;;;;;35.50;19.65;;;;;;;10.70;50.12;102215.66;352369;28;1144;-67
2021/03/03 00:19:48;;;;;;;37.28;20.27;;;;;;;10.67;50.43;102211.34;352318;28;1091;-69
2021/03/03 00:19:59;;;;;;;36.75;20.25;;;;;;;10.66;50.19;102214.88;352379;28;1072;-69
2021/03/03 00:20:11;;;;;;;37.17;20.20;;;;;;;10.64;50.36;102207.91;352371;28;1154;-68
2021/03/03 00:20:22;;;;;;;37.50;20.15;;;;;;;10.56;50.27;102213.34;352180;28;1170;-66
2021/03/03 00:20:33;;;;;;;38.33;20.38;;;;;;;10.58;49.77;102214.19;352237;28;1029;-67
2021/03/03 00:20:44;;;;;;;37.55;20.35;;;;;;;10.58;50.07;102218.59;352346;28;1247;-67
2021/03/03 00:20:56;;;;;;;39.10;20.48;;;;;;;10.61;50.30;102213.25;352293;28;1028;-68
2021/03/03 00:21:07;;;;;;;38.33;20.20;;;;;;;10.65;50.33;102215.78;352335;28;1121;-67
2021/03/03 00:21:18;;;;;;;41.28;20.65;;;;;;;10.66;50.58;102211.34;352248;28;1188;-67
2021/03/03 00:21:29;;;;;;;45.03;21.20;;;;;;;10.64;50.68;102211.41;352311;28;1080;-68
2021/03/03 00:21:41;;;;;;;44.83;21.35;;;;;;;10.60;49.99;102217.66;352354;28;1069;-68
2021/03/03 00:21:52;;;;;;;39.50;20.98;;;;;;;10.58;49.93;102206.28;352274;28;1154;-67
2021/03/03 00:22:03;;;;;;;38.63;20.98;;;;;;;10.62;50.18;102212.34;352345;28;1036;-68
2021/03/03 00:22:14;;;;;;;38.72;20.83;;;;;;;10.58;49.53;102219.47;352231;28;1423;-68
2021/03/03 00:22:25;;;;;;;38.05;20.38;;;;;;;10.56;50.28;102216.00;350727;28;1105;-68
2021/03/03 00:22:36;;;;;;;40.25;20.23;;;;;;;10.56;50.28;102210.72;350787;28;1248;-68
2021/03/03 00:22:47;;;;;;;41.78;20.13;;;;;;;10.59;49.93;102215.94;350813;28;1067;-68
2021/03/03 00:22:59;;;;;;;40.63;20.15;;;;;;;10.60;49.70;102211.50;349430;28;1124;-67
2021/03/03 00:23:10;;;;;;;38.70;19.98;;;;;;;10.60;49.91;102216.78;349317;28;1086;-68
2021/03/03 00:23:21;;;;;;;39.14;19.98;;;;;;;10.62;50.13;102221.16;349424;28;1235;-67
2021/03/03 00:23:32;;;;;;;42.15;20.55;;;;;;;10.63;50.71;102214.97;349386;28;1126;-67
2021/03/03 00:23:43;;;;;;;39.65;20.52;;;;;;;10.62;49.50;102213.22;349446;28;1221;-68
2021/03/03 00:23:54;;;;;;;37.95;20.80;;;;;;;10.60;50.33;102209.72;349414;28;1136;-68
2021/03/03 00:24:06;;;;;;;38.63;20.85;;;;;;;10.62;49.92;102213.22;349354;28;1061;-68
2021/03/03 00:24:17;;;;;;;42.50;21.27;;;;;;;10.64;50.78;102214.03;349344;28;2063;-67
2021/03/03 00:24:28;;;;;;;39.97;21.05;;;;;;;10.64;49.90;102214.03;350788;28;1092;-67
2021/03/03 00:24:39;;;;;;;39.30;20.67;;;;;;;10.68;50.44;102214.84;350785;28;1134;-67
2021/03/03 00:24:50;;;;;;;37.60;20.20;;;;;;;10.69;50.25;102212.16;350838;28;1158;-68
2021/03/03 00:25:01;;;;;;;39.70;20.45;;;;;;;10.73;50.54;102212.06;352215;28;1057;-67
2021/03/03 00:25:12;;;;;;;43.20;21.00;;;;;;;10.73;50.50;102207.69;352289;28;1145;-67
2021/03/03 00:25:23;;;;;;;42.97;21.08;;;;;;;10.75;50.27;102216.41;352222;28;1142;-67
2021/03/03 00:25:35;;;;;;;40.53;21.23;;;;;;;10.74;49.90;102208.53;350805;28;1150;-67
2021/03/03 00:25:46;;;;;;;36.28;20.80;;;;;;;10.75;49.83;102220.84;350855;28;1069;-67
2021/03/03 00:25:57;;;;;;;34.95;20.45;;;;;;;10.75;50.00;102210.28;350704;28;1103;-67
2021/03/03 00:26:08;;;;;;;35.92;19.92;;;;;;;10.78;49.92;102210.19;349489;28;1088;-67
2021/03/03 00:26:19;;;;;;;37.70;19.90;;;;;;;10.79;50.63;102209.31;349473;28;1072;-67
2021/03/03 00:26:30;;;;;;;37.72;20.05;;;;;;;10.78;49.95;102210.19;349385;28;1072;-67
2021/03/03 00:26:41;;;;;;;35.17;20.02;;;;;;;10.76;49.69;102212.03;349440;28;1128;-68
2021/03/03 00:26:52;;;;;;;38.75;20.60;;;;;;;10.75;49.74;102216.41;349349;28;974;-67
2021/03/03 00:27:04;;;;;;;40.95;20.45;;;;;;;10.75;50.51;102207.63;349430;28;1088;-67
2021/03/03 00:27:15;;;;;;;39.70;20.50;;;;;;;10.75;50.09;102211.13;349477;28;1033;-68
2021/03/03 00:27:26;;;;;;;39.38;20.38;;;;;;;10.67;49.67;102208.69;349374;28;1060;-68
2021/03/03 00:27:56;;;;;;;42.45;20.85;;;;;;;10.65;50.64;102214.94;348306;28;71420;-68
2021/03/03 00:28:07;;;;;;;42.90;20.95;;;;;;;10.68;50.90;102210.41;352019;28;1208;-68
2021/03/03 00:28:18;;;;;;;38.95;20.45;;;;;;;10.69;50.19;102212.16;352305;28;1138;-68
2021/03/03 00:28:30;;;;;;;39.00;20.65;;;;;;;10.70;50.69;102226.22;351696;28;1695;-68
2021/03/03 00:28:41;;;;;;;39.88;20.88;;;;;;;10.69;50.73;102217.44;351073;28;1821;-67
2021/03/03 00:28:52;;;;;;;41.30;21.13;;;;;;;10.67;50.32;102214.00;352319;28;1363;-68
2021/03/03 00:29:03;;;;;;;43.53;21.33;;;;;;;10.68;50.65;102222.78;350834;28;1179;-68
2021/03/03 00:29:14;;;;;;;45.15;21.13;;;;;;;10.67;50.07;102214.00;350823;28;1236;-67
2021/03/03 00:29:25;;;;;;;42.85;20.58;;;;;;;10.67;50.31;102213.09;350806;28;1164;-68
2021/03/03 00:29:37;;;;;;;38.53;20.15;;;;;;;10.67;50.52;102213.09;350749;28;1153;-68
2021/03/03 00:29:48;;;;;;;38.42;20.33;;;;;;;10.65;50.55;102214.94;350766;28;1060;-68
2021/03/03 00:29:59;;;;;;;41.45;20.27;;;;;;;10.64;50.53;102216.69;350801;28;1094;-68
2021/03/03 00:30:10;;;;;;;40.50;20.27;;;;;;;10.66;49.94;102209.59;350806;28;1208;-68
2021/03/03 00:30:22;;;;;;;40.15;20.58;;;;;;;10.69;50.58;102217.44;349390;28;1068;-68
2021/03/03 00:30:33;;;;;;;41.63;21.00;;;;;;;10.73;50.03;102217.38;349323;28;1114;-68
2021/03/03 00:30:44;;;;;;;41.50;21.00;;;;;;;10.67;50.47;102213.09;349377;28;1056;-68
2021/03/03 00:30:56;;;;;;;42.42;21.40;;;;;;;10.64;49.71;102214.03;349572;28;1155;-68
2021/03/03 00:31:07;;;;;;;39.80;21.17;;;;;;;10.65;49.91;102220.22;350781;28;1106;-68
2021/03/03 00:31:18;;;;;;;39.50;20.85;;;;;;;10.66;50.63;102216.63;350866;28;1048;-68
2021/03/03 00:31:30;;;;;;;37.22;20.48;;;;;;;10.69;50.39;102211.31;350440;28;1699;-68
2021/03/03 00:31:41;;;;;;;38.85;20.42;;;;;;;10.71;50.65;102208.63;349305;28;1110;-68
2021/03/03 00:31:52;;;;;;;42.60;20.98;;;;;;;10.66;50.09;102216.63;349445;28;1090;-68
2021/03/03 00:32:04;;;;;;;43.25;20.70;;;;;;;10.64;50.15;102213.19;349722;28;1408;-69
2021/03/03 00:32:15;;;;;;;43.83;20.38;;;;;;;10.66;50.76;102217.53;351132;28;1090;-67
2021/03/03 00:32:26;;;;;;;41.42;20.20;;;;;;;10.62;50.48;102215.88;352140;28;1178;-67
2021/03/03 00:32:38;;;;;;;40.58;20.23;;;;;;;10.59;50.32;102220.34;350840;28;1101;-65
2021/03/03 00:32:49;;;;;;;37.78;20.38;;;;;;;10.60;50.08;102217.66;349420;28;1170;-66
2021/03/03 00:33:00;;;;;;;37.42;20.74;;;;;;;10.63;50.52;102219.38;349380;28;1196;-67
2021/03/03 00:33:12;;;;;;;39.08;20.63;;;;;;;10.63;51.07;102212.31;349460;28;1075;-67
2021/03/03 00:33:23;;;;;;;39.15;20.30;;;;;;;10.61;50.46;102211.47;349361;28;2396;-68
2021/03/03 00:33:34;;;;;;;38.33;20.05;;;;;;;10.58;50.01;102214.19;347957;28;1010;-69
2021/03/03 00:33:45;;;;;;;39.10;20.88;;;;;;;10.53;49.70;102219.56;348050;28;1057;-68
2021/03/03 00:33:56;;;;;;;40.35;21.17;;;;;;;10.52;50.39;102220.50;346654;28;1146;-68
2021/03/03 00:34:07;;;;;;;41.72;21.15;;;;;;;10.51;50.79;102216.09;346649;28;1130;-69
2021/03/03 00:34:18;;;;;;;41.60;20.60;;;;;;;10.51;50.63;102209.97;346538;28;1074;-67
2021/03/03 00:34:29;;;;;;;41.28;20.30;;;;;;;10.52;50.67;102215.22;346584;28;1221;-69
2021/03/03 00:34:40;;;;;;;42.08;20.42;;;;;;;10.49;50.47;102215.25;348112;28;1205;-69
2021/03/03 00:34:51;;;;;;;40.63;20.75;;;;;;;10.50;50.39;102218.78;349391;28;1172;-68
2021/03/03 00:35:03;;;;;;;39.97;20.67;;;;;;;10.54;50.97;102215.16;349317;28;1510;-68
2021/03/03 00:35:14;;;;;;;40.60;20.60;;;;;;;10.55;50.50;102218.66;349296;28;1048;-67
2021/03/03 00:35:26;;;;;;;41.42;20.52;;;;;;;10.55;50.13;102219.56;349492;28;1073;-68
2021/03/03 00:35:37;;;;;;;41.72;20.90;;;;;;;10.56;50.55;102216.00;350872;28;1065;-70
2021/03/03 00:35:48;;;;;;;40.05;20.65;;;;;;;10.55;50.71;102214.28;350882;28;1072;-68
2021/03/03 00:35:59;;;;;;;37.65;20.70;;;;;;;10.56;50.53;102213.34;350807;28;1142;-67
2021/03/03 00:36:10;;;;;;;40.35;20.88;;;;;;;10.56;50.14;102209.84;350735;28;1146;-67
2021/03/03 00:36:21;;;;;;;40.95;21.30;;;;;;;10.51;50.59;102215.25;350740;28;1153;-69
2021/03/03 00:36:32;;;;;;;40.33;21.23;;;;;;;10.44;50.39;102219.81;350746;28;1162;-69
2021/03/03 00:36:43;;;;;;;38.63;21.13;;;;;;;10.40;50.55;102217.25;350867;28;1167;-69
2021/03/03 00:36:54;;;;;;;40.90;21.15;;;;;;;10.40;51.33;102219.88;350758;28;1145;-68
2021/03/03 00:37:05;;;;;;;41.10;20.98;;;;;;;10.38;50.89;102216.44;350742;28;1080;-70
2021/03/03 00:37:17;;;;;;;39.97;20.75;;;;;;;10.38;50.61;102216.44;350778;28;1148;-69
2021/03/03 00:37:28;;;;;;;38.72;20.63;;;;;;;10.35;50.65;102220.00;350818;28;1152;-68
2021/03/03 00:37:39;;;;;;;40.28;20.45;;;;;;;10.37;51.30;102210.25;350816;28;1108;-69
2021/03/03 00:37:50;;;;;;;40.15;20.98;;;;;;;10.41;51.33;102216.34;350803;28;1145;-68
2021/03/03 00:38:01;;;;;;;42.83;21.25;;;;;;;10.43;50.94;102214.56;352219;28;1153;-68
2021/03/03 00:38:13;;;;;;;45.58;21.27;;;;;;;10.44;50.19;102221.56;352259;28;1143;-68
2021/03/03 00:38:24;;;;;;;45.85;20.88;;;;;;;10.47;50.97;102216.22;352370;28;1056;-69
2021/03/03 00:38:35;;;;;;;46.58;20.83;;;;;;;10.50;51.29;102216.16;352295;28;1060;-68
2021/03/03 00:38:46;;;;;;;45.75;21.13;;;;;;;10.50;51.21;102213.50;352348;28;1089;-69
2021/03/03 00:38:57;;;;;;;41.38;20.63;;;;;;;10.48;50.67;102216.19;352229;28;1147;-69
2021/03/03 00:39:08;;;;;;;38.22;20.17;;;;;;;10.46;50.94;102215.34;351380;28;1721;-68
2021/03/03 00:39:19;;;;;;;39.20;20.25;;;;;;;10.48;51.22;102220.59;351920;28;1846;-68
2021/03/03 00:39:32;;;;;;;40.40;20.38;;;;;;;10.50;51.25;102217.00;350894;28;1072;-68
2021/03/03 00:39:43;;;;;;;38.00;20.50;;;;;;;10.49;50.88;102215.25;349448;28;1320;-69
2021/03/03 00:39:54;;;;;;;37.45;20.75;;;;;;;10.49;50.29;102215.25;349305;28;1461;-69
2021/03/03 00:40:06;;;;;;;39.33;21.65;;;;;;;10.50;51.27;102216.16;348023;28;1315;-68
2021/03/03 00:40:17;;;;;;;39.90;21.27;;;;;;;10.50;50.83;102210.88;348054;28;1061;-69
2021/03/03 00:40:28;;;;;;;39.20;20.92;;;;;;;10.52;51.31;102216.97;347977;28;1090;-68
2021/03/03 00:40:39;;;;;;;38.75;20.85;;;;;;;10.55;50.86;102213.38;348070;28;1018;-69
2021/03/03 00:40:52;;;;;;;39.03;20.80;;;;;;;10.53;50.98;102216.94;348007;28;1120;-70
2021/03/03 00:41:04;;;;;;;39.35;20.85;;;;;;;10.58;50.93;102205.38;347878;28;1177;-67
2021/03/03 00:41:15;;;;;;;37.63;20.52;;;;;;;10.56;51.05;102217.78;348057;28;1149;-69
2021/03/03 00:41:26;;;;;;;37.10;20.58;;;;;;;10.54;50.11;102225.75;348037;28;1225;-68
2021/03/03 00:41:37;;;;;;;37.22;20.83;;;;;;;10.54;50.51;102223.09;348473;28;1155;-68
2021/03/03 00:41:48;;;;;;;37.90;21.17;;;;;;;10.51;50.10;102218.75;349329;28;1089;-69
2021/03/03 00:42:00;;;;;;;42.10;21.20;;;;;;;10.50;50.54;102216.16;349449;28;1148;-69
2021/03/03 00:42:11;;;;;;;44.55;21.40;;;;;;;10.51;50.93;102220.53;349400;28;1062;-69
2021/03/03 00:42:22;;;;;;;40.72;20.63;;;;;;;10.52;50.71;102222.25;349442;28;1085;-68
2021/03/03 00:42:33;;;;;;;37.98;20.88;;;;;;;10.55;50.91;102214.28;349411;28;1133;-70
2021/03/03 00:42:45;;;;;;;36.08;20.16;;;;;;;10.59;50.99;102221.22;349380;28;1184;-70
2021/03/03 00:42:56;;;;;;;35.92;20.00;;;;;;;10.60;50.68;102217.66;349475;28;1146;-68
2021/03/03 00:43:07;;;;;;;37.20;19.90;;;;;;;10.61;50.63;102222.03;350831;28;1131;-68
2021/03/03 00:43:18;;;;;;;40.70;20.40;;;;;;;10.60;50.30;102220.28;350907;28;1060;-70
2021/03/03 00:43:29;;;;;;;41.10;20.95;;;;;;;10.58;50.46;102215.94;350920;28;1103;-69
2021/03/03 00:43:40;;;;;;;41.63;21.00;;;;;;;10.56;50.61;102223.91;350810;28;1111;-68
2021/03/03 00:43:51;;;;;;;38.17;21.05;;;;;;;10.51;49.95;102216.09;350894;28;1141;-69
2021/03/03 00:44:03;;;;;;;37.88;20.90;;;;;;;10.53;50.84;102222.22;350886;28;1154;-70
2021/03/03 00:44:14;;;;;;;37.08;21.05;;;;;;;10.56;51.11;102212.50;350857;28;1178;-69
2021/03/03 00:44:26;;;;;;;37.83;21.50;;;;;;;10.56;51.43;102225.69;350926;28;1026;-69
2021/03/03 00:44:37;;;;;;;37.70;21.40;;;;;;;10.57;51.37;102225.66;350693;28;1968;-69
2021/03/03 00:44:48;;;;;;;40.47;21.50;;;;;;;10.56;51.21;102225.69;350786;28;1102;-68
2021/03/03 00:44:59;;;;;;;40.55;21.42;;;;;;;10.57;51.33;102223.03;350853;28;1138;-69
2021/03/03 00:45:11;;;;;;;44.05;21.98;;;;;;;10.58;51.08;102223.88;350891;28;1117;-68
2021/03/03 00:45:22;;;;;;;43.25;21.80;;;;;;;10.58;51.27;102227.41;350949;28;1036;-68
2021/03/03 00:45:33;;;;;;;44.17;21.70;;;;;;;10.60;51.28;102222.94;350756;28;979;-69
2021/03/03 00:45:44;;;;;;;42.40;21.63;;;;;;;10.62;51.51;102222.91;350848;28;1151;-70
2021/03/03 00:45:56;;;;;;;39.17;21.73;;;;;;;10.63;50.78;102222.91;350914;28;1066;-68
2021/03/03 00:46:07;;;;;;;39.65;21.90;;;;;;;10.63;50.65;102225.53;350930;28;1114;-68
2021/03/03 00:46:18;;;;;;;43.03;21.95;;;;;;;10.56;50.49;102226.56;350868;28;1206;-69
2021/03/03 00:46:29;;;;;;;45.72;21.88;;;;;;;10.53;50.66;102227.50;350763;28;1094;-69
2021/03/03 00:46:41;;;;;;;41.35;21.70;;;;;;;10.55;51.17;102216.91;350879;28;1093;-69
2021/03/03 00:46:52;;;;;;;37.53;21.35;;;;;;;10.60;51.31;102220.28;350936;28;1044;-68
2021/03/03 00:47:04;;;;;;;38.53;21.42;;;;;;;10.61;50.53;102218.53;350920;28;1175;-69
2021/03/03 00:47:15;;;;;;;41.70;21.90;;;;;;;10.62;51.15;102221.16;349359;28;1140;-69
2021/03/03 00:47:27;;;;;;;41.75;21.95;;;;;;;10.64;50.91;102218.47;349326;28;1085;-68
2021/03/03 00:47:38;;;;;;;40.92;21.45;;;;;;;10.65;50.98;102217.56;349415;28;1185;-68
2021/03/03 00:47:50;;;;;;;39.38;21.35;;;;;;;10.66;51.02;102222.81;349440;28;1078;-69
2021/03/03 00:48:01;;;;;;;39.20;21.05;;;;;;;10.68;51.20;102223.63;349388;28;1133;-68
2021/03/03 00:48:12;;;;;;;38.28;21.25;;;;;;;10.69;50.83;102219.22;349479;28;1147;-69
2021/03/03 00:48:23;;;;;;;37.78;21.55;;;;;;;10.68;51.00;102226.28;349246;28;1229;-69
2021/03/03 00:48:34;;;;;;;39.22;21.55;;;;;;;10.67;50.77;102218.38;349365;28;1145;-68
2021/03/03 00:48:46;;;;;;;40.78;21.10;;;;;;;10.67;50.54;102218.38;349446;28;1041;-69
2021/03/03 00:48:57;;;;;;;42.25;21.27;;;;;;;10.64;51.15;102227.25;349415;28;1258;-69
2021/03/03 00:49:08;;;;;;;40.85;20.88;;;;;;;10.64;50.52;102221.97;349679;28;1131;-69
2021/03/03 00:49:19;;;;;;;40.17;20.90;;;;;;;10.65;50.61;102220.22;350808;28;1167;-68
2021/03/03 00:49:30;;;;;;;39.10;20.70;;;;;;;10.66;50.88;102220.16;350778;28;1174;-69
2021/03/03 00:49:41;;;;;;;41.50;21.23;;;;;;;10.66;50.92;102220.16;350958;28;1093;-68
2021/03/03 00:49:52;;;;;;;39.75;21.17;;;;;;;10.67;51.31;102216.63;350726;28;1643;-68
2021/03/03 00:50:04;;;;;;;39.55;21.23;;;;;;;10.68;51.16;102217.50;351920;28;1948;-69
2021/03/03 00:50:15;;;;;;;38.25;21.48;;;;;;;10.68;51.10;102220.97;352269;28;915;-68
2021/03/03 00:50:27;;;;;;;37.55;21.33;;;;;;;10.66;50.97;102220.16;352221;28;1130;-68
2021/03/03 00:50:38;;;;;;;36.97;21.42;;;;;;;10.65;50.66;102213.13;352229;28;1149;-68
2021/03/03 00:50:49;;;;;;;37.92;21.65;;;;;;;10.64;51.19;102221.97;350801;28;1164;-68
2021/03/03 00:51:00;;;;;;;40.58;21.90;;;;;;;10.66;50.68;102228.09;350785;28;1232;-70
2021/03/03 00:51:11;;;;;;;39.80;22.02;;;;;;;10.66;51.14;102219.28;350701;28;1148;-69
2021/03/03 00:51:23;;;;;;;40.45;21.63;;;;;;;10.68;50.56;102220.97;350730;28;1275;-69
2021/03/03 00:51:34;;;;;;;41.13;21.42;;;;;;;10.68;51.31;102220.97;350826;28;1145;-69
2021/03/03 00:51:45;;;;;;;41.78;21.42;;;;;;;10.68;50.86;102218.34;350830;28;1139;-69
2021/03/03 00:51:56;;;;;;;42.80;21.60;;;;;;;10.68;51.09;102228.06;350834;28;1073;-69
2021/03/03 00:52:07;;;;;;;42.10;21.48;;;;;;;10.68;50.73;102226.28;350716;28;1066;-67
2021/03/03 00:52:18;;;;;;;41.35;21.48;;;;;;;10.69;50.43;102222.72;350645;28;2341;-70
2021/03/03 00:52:29;;;;;;;39.42;21.35;;;;;;;10.72;50.84;102219.16;350777;28;1135;-67